Time;durP1;ratioP1;P1;durP2;ratioP2;P2;SDS_P1;SDS_P2;PMS_P1;PMS_P2;Temp;Humidity;BMP_temperature;BMP_pressure;BME280_temperature;BME280_humidity;BME280_pressure;Samples;Min_cycle;Max_cycle;Signal;HPM_P1;HPM_P2
2021/12/27 00:00:57;;;;;;;9.70;8.65;;;12.50;85.80;;;;;;4973376;28;20050;-79
2021/12/27 00:03:23;;;;;;;8.88;8.43;;;12.60;85.90;;;;;;4975804;28;20042;-79
2021/12/27 00:05:50;;;;;;;8.45;8.05;;;12.60;85.90;;;;;;4974501;28;20035;-79
2021/12/27 00:08:16;;;;;;;8.68;8.23;;;12.60;85.90;;;;;;4973175;28;20031;-79
2021/12/27 00:10:42;;;;;;;8.40;8.00;;;12.50;85.80;;;;;;4974233;28;20038;-79
2021/12/27 00:13:09;;;;;;;8.07;7.68;;;12.50;85.70;;;;;;4971849;28;20039;-79
2021/12/27 00:15:35;;;;;;;8.40;8.00;;;12.50;85.70;;;;;;4973146;28;20035;-79
2021/12/27 00:18:01;;;;;;;8.15;7.75;;;12.60;85.80;;;;;;4972706;28;20031;-79
2021/12/27 00:20:27;;;;;;;8.85;8.45;;;12.50;85.70;;;;;;4961639;28;20031;-79
2021/12/27 00:22:53;;;;;;;8.75;8.35;;;12.50;85.70;;;;;;4964014;28;20042;-79
2021/12/27 00:25:20;;;;;;;9.40;8.75;;;12.50;85.70;;;;;;4963970;28;20042;-79
2021/12/27 00:27:46;;;;;;;9.02;8.40;;;12.50;85.70;;;;;;4961668;28;20031;-79
2021/12/27 00:30:13;;;;;;;8.07;7.68;;;12.50;85.70;;;;;;4944948;28;20061;-79
2021/12/27 00:32:43;;;;;;;8.07;7.68;;;12.50;85.80;;;;;;4959581;28;20062;-79
2021/12/27 00:35:09;;;;;;;8.60;8.20;;;12.50;85.70;;;;;;4961764;28;20199;-79
2021/12/27 00:37:35;;;;;;;8.95;8.45;;;12.50;85.70;;;;;;4963723;28;20038;-79
2021/12/27 00:40:02;;;;;;;9.05;8.65;;;12.50;85.70;;;;;;4972446;28;20046;-79
2021/12/27 00:42:28;;;;;;;8.80;8.40;;;12.50;85.70;;;;;;4976536;28;20027;-79
2021/12/27 00:44:54;;;;;;;8.60;8.20;;;12.50;85.70;;;;;;4959253;28;20035;-79
2021/12/27 00:47:20;;;;;;;8.82;8.43;;;12.40;85.60;;;;;;4962352;28;20031;-79
2021/12/27 00:49:46;;;;;;;8.23;7.82;;;12.40;85.70;;;;;;4961806;28;20031;-79
2021/12/27 00:52:12;;;;;;;10.23;9.23;;;12.30;85.70;;;;;;4974301;28;20421;-79
2021/12/27 00:54:38;;;;;;;7.82;7.47;;;12.30;85.70;;;;;;4974516;28;20038;-79
2021/12/27 00:57:05;;;;;;;8.00;7.60;;;12.30;85.80;;;;;;4958683;28;20039;-79
2021/12/27 00:59:31;;;;;;;7.80;7.45;;;12.20;85.80;;;;;;4964526;28;20499;-79
2021/12/27 01:01:57;;;;;;;8.23;7.82;;;12.30;85.90;;;;;;4964811;28;20047;-78
2021/12/27 01:04:23;;;;;;;9.82;9.35;;;12.20;85.80;;;;;;4949856;28;20046;-79
2021/12/27 01:06:49;;;;;;;8.43;8.02;;;12.20;85.80;;;;;;4974207;28;20034;-79
2021/12/27 01:09:28;;;;;;;8.70;8.30;;;12.20;85.90;;;;;;4974389;28;20495;-79
2021/12/27 01:14:54;;;;;;;8.93;8.52;;;12.20;85.80;;;;;;4978887;28;20038;-79
2021/12/27 01:17:12;;;;;;;8.15;7.75;;;12.20;85.80;;;;;;4976399;28;20043;-79
2021/12/27 01:19:38;;;;;;;8.32;7.93;;;12.20;85.80;;;;;;4972638;28;20034;-79
2021/12/27 01:22:04;;;;;;;8.00;7.60;;;12.20;85.80;;;;;;4962688;28;20035;-79
2021/12/27 01:24:31;;;;;;;8.45;7.95;;;12.20;85.80;;;;;;4959982;28;20034;-79
2021/12/27 01:27:00;;;;;;;9.20;8.65;;;12.20;85.80;;;;;;4963657;28;20594;-79
2021/12/27 01:29:26;;;;;;;9.05;8.65;;;12.20;85.80;;;;;;4969711;28;20046;-79
2021/12/27 01:31:52;;;;;;;8.82;8.43;;;12.10;85.80;;;;;;4960777;28;20039;-79
2021/12/27 01:34:18;;;;;;;8.02;7.63;;;12.10;85.80;;;;;;4962746;28;20485;-79
2021/12/27 01:36:44;;;;;;;8.40;8.00;;;12.10;85.80;;;;;;4960254;28;20030;-79
2021/12/27 01:39:10;;;;;;;8.60;8.20;;;12.10;85.80;;;;;;4973231;28;20717;-79
2021/12/27 01:41:36;;;;;;;8.27;7.88;;;12.10;85.80;;;;;;4965499;28;20476;-79
2021/12/27 01:44:02;;;;;;;14.77;8.50;;;12.20;85.80;;;;;;4963923;28;20031;-79
2021/12/27 01:46:30;;;;;;;8.25;7.85;;;12.10;85.70;;;;;;4960273;28;20038;-79
2021/12/27 01:48:57;;;;;;;8.38;7.97;;;12.10;85.70;;;;;;4968476;28;20027;-79
2021/12/27 01:51:25;;;;;;;9.45;9.00;;;12.10;85.70;;;;;;4973165;28;20043;-79
2021/12/27 01:53:51;;;;;;;7.95;7.55;;;12.10;85.70;;;;;;4968246;28;20030;-79
2021/12/27 01:56:20;;;;;;;8.63;8.23;;;12.10;85.70;;;;;;4956341;28;20047;-79
2021/12/27 01:58:48;;;;;;;15.63;8.25;;;12.10;85.70;;;;;;4972958;28;20034;-79
2021/12/27 02:01:14;;;;;;;7.25;6.95;;;12.10;85.80;;;;;;4970281;28;20043;-79
2021/12/27 02:03:43;;;;;;;8.45;7.95;;;12.10;85.80;;;;;;4959426;28;20026;-79
2021/12/27 02:06:10;;;;;;;7.90;7.50;;;12.10;85.80;;;;;;4963225;28;20055;-79
2021/12/27 02:08:38;;;;;;;7.50;7.20;;;12.10;85.80;;;;;;4958737;28;20031;-79
2021/12/27 02:11:04;;;;;;;8.20;7.80;;;12.10;85.80;;;;;;4970196;28;20050;-79
2021/12/27 02:13:30;;;;;;;9.20;8.50;;;12.00;85.80;;;;;;4972633;28;20034;-79
2021/12/27 02:15:56;;;;;;;7.90;7.50;;;12.00;85.80;;;;;;4954981;28;20034;-79
2021/12/27 02:18:22;;;;;;;7.82;7.35;;;12.00;85.90;;;;;;4973923;28;20054;-79
2021/12/27 02:20:48;;;;;;;8.10;7.70;;;12.00;85.90;;;;;;4966303;28;20019;-79
2021/12/27 02:23:16;;;;;;;7.43;7.13;;;12.00;85.90;;;;;;4955620;28;20042;-79
2021/12/27 02:25:44;;;;;;;7.55;7.25;;;11.90;85.90;;;;;;4949437;28;20027;-79
2021/12/27 02:28:11;;;;;;;7.70;7.38;;;11.90;85.90;;;;;;4960031;28;20042;-79
2021/12/27 02:30:37;;;;;;;7.75;7.40;;;11.90;86.00;;;;;;4964854;28;20500;-79
2021/12/27 02:33:07;;;;;;;7.88;7.50;;;11.90;86.00;;;;;;4970791;28;20051;-79
2021/12/27 02:35:38;;;;;;;8.18;7.78;;;11.90;86.00;;;;;;4957295;28;20035;-79
2021/12/27 02:38:07;;;;;;;8.57;8.15;;;12.00;86.10;;;;;;4959867;28;20062;-79
2021/12/27 02:40:33;;;;;;;7.43;7.13;;;12.00;86.00;;;;;;4971041;28;20035;-79
2021/12/27 02:43:03;;;;;;;9.57;9.15;;;12.00;85.90;;;;;;4947102;28;20043;-79
2021/12/27 02:45:30;;;;;;;8.75;8.35;;;12.00;85.90;;;;;;4958119;28;20039;-80
2021/12/27 02:47:57;;;;;;;7.90;7.53;;;12.00;85.80;;;;;;4956274;28;20077;-79
2021/12/27 02:50:24;;;;;;;7.38;7.07;;;12.00;85.80;;;;;;4981309;28;20035;-79
2021/12/27 02:52:50;;;;;;;8.23;7.82;;;12.10;85.80;;;;;;4963400;28;20040;-79
2021/12/27 02:55:17;;;;;;;7.47;7.18;;;12.10;85.80;;;;;;4948528;28;20031;-79
2021/12/27 02:57:44;;;;;;;7.15;6.85;;;12.10;85.70;;;;;;4972522;28;20051;-79
2021/12/27 03:00:15;;;;;;;8.07;7.68;;;12.00;85.70;;;;;;4954250;28;20063;-79
2021/12/27 03:02:42;;;;;;;;;;;12.10;85.80;;;;;;4960776;28;20501;-79
2021/12/27 03:05:10;;;;;;;8.25;7.75;;;12.10;85.80;;;;;;4973978;28;19910;-79
2021/12/27 03:07:37;;;;;;;7.30;7.00;;;12.00;85.80;;;;;;4971542;28;20031;-79
2021/12/27 03:10:03;;;;;;;8.00;7.60;;;12.10;85.80;;;;;;4972166;28;20035;-79
2021/12/27 03:12:29;;;;;;;7.32;7.03;;;12.00;85.80;;;;;;4969217;28;20046;-79
2021/12/27 03:14:55;;;;;;;7.47;7.18;;;12.00;85.70;;;;;;4971518;28;20049;-79
2021/12/27 03:17:21;;;;;;;7.18;6.88;;;12.10;85.80;;;;;;4971787;28;20046;-79
2021/12/27 03:19:48;;;;;;;8.40;8.00;;;12.10;85.80;;;;;;4970318;28;20019;-79
2021/12/27 03:22:14;;;;;;;7.80;7.40;;;12.10;85.80;;;;;;4971407;28;20038;-79
2021/12/27 03:24:40;;;;;;;7.22;6.93;;;12.10;85.80;;;;;;4970222;28;20027;-79
2021/12/27 03:27:06;;;;;;;7.82;7.43;;;12.10;85.80;;;;;;4972594;28;20117;-79
2021/12/27 03:29:32;;;;;;;8.18;7.78;;;12.00;85.70;;;;;;4955725;28;20043;-79
2021/12/27 03:31:58;;;;;;;7.80;7.43;;;12.00;85.70;;;;;;4970418;28;20046;-79
2021/12/27 03:34:24;;;;;;;8.27;7.88;;;12.10;85.80;;;;;;4971617;28;20022;-79
2021/12/27 03:36:50;;;;;;;8.05;7.65;;;12.10;85.80;;;;;;4976012;28;20042;-79
2021/12/27 03:39:16;;;;;;;7.70;7.40;;;12.10;85.80;;;;;;4968749;28;20053;-79
2021/12/27 03:41:42;;;;;;;7.90;7.50;;;12.00;85.70;;;;;;4973637;28;20045;-79
2021/12/27 03:44:08;;;;;;;7.55;7.25;;;12.00;85.80;;;;;;4975545;28;20392;-79
2021/12/27 03:46:35;;;;;;;8.20;7.80;;;12.00;85.80;;;;;;4952307;28;20035;-79
2021/12/27 03:49:01;;;;;;;8.30;7.90;;;12.00;85.90;;;;;;4963557;28;20492;-79
2021/12/27 03:51:27;;;;;;;7.53;7.18;;;12.00;85.90;;;;;;4975373;28;20035;-80
2021/12/27 03:53:53;;;;;;;8.10;7.70;;;12.00;86.00;;;;;;4976091;28;20381;-79
2021/12/27 03:56:23;;;;;;;8.15;7.65;;;11.90;86.00;;;;;;4962792;28;20058;-79
2021/12/27 03:58:57;;;;;;;7.35;7.05;;;11.90;86.00;;;;;;4968444;28;20495;-79
2021/12/27 04:01:23;;;;;;;9.13;8.68;;;11.90;86.10;;;;;;4957761;28;20030;-79
2021/12/27 04:03:51;;;;;;;8.23;7.82;;;11.90;86.10;;;;;;4936501;29;20050;-80
2021/12/27 04:06:18;;;;;;;7.50;7.20;;;11.90;86.10;;;;;;4973365;28;20019;-80
2021/12/27 04:08:44;;;;;;;8.38;7.78;;;11.90;86.10;;;;;;4942779;29;20497;-78
2021/12/27 04:11:10;;;;;;;8.07;7.68;;;11.90;86.20;;;;;;4956376;28;20034;-79
2021/12/27 04:13:36;;;;;;;7.70;7.40;;;11.90;86.10;;;;;;4964050;28;20046;-79
2021/12/27 04:16:03;;;;;;;8.68;8.27;;;11.80;86.10;;;;;;4974729;28;20042;-79
2021/12/27 04:18:29;;;;;;;13.90;13.30;;;11.80;86.10;;;;;;4956815;28;20476;-80
2021/12/27 04:20:55;;;;;;;10.55;10.05;;;11.80;86.10;;;;;;4975105;28;20031;-80
2021/12/27 04:23:21;;;;;;;8.55;8.15;;;11.90;86.10;;;;;;4955826;28;20519;-80
2021/12/27 04:25:47;;;;;;;9.15;8.75;;;11.90;86.20;;;;;;4967599;28;20046;-80
2021/12/27 04:28:15;;;;;;;8.60;8.20;;;11.90;86.10;;;;;;4969671;28;20031;-80
2021/12/27 04:30:41;;;;;;;8.60;8.20;;;11.90;86.10;;;;;;4973045;28;20039;-80
2021/12/27 04:33:07;;;;;;;8.48;8.07;;;11.90;86.10;;;;;;4962207;28;20054;-79
2021/12/27 04:35:33;;;;;;;9.85;9.35;;;11.90;86.10;;;;;;4975304;28;20397;-79
2021/12/27 04:37:59;;;;;;;9.00;8.50;;;11.90;86.10;;;;;;4964010;28;20062;-78
2021/12/27 04:40:28;;;;;;;9.20;8.65;;;11.90;86.00;;;;;;4962166;28;20047;-78
2021/12/27 04:42:57;;;;;;;11.30;10.48;;;12.00;86.00;;;;;;4952627;28;20043;-78
2021/12/27 04:45:23;;;;;;;8.45;8.05;;;12.00;86.00;;;;;;4959139;28;20043;-79
2021/12/27 04:47:49;;;;;;;9.60;9.18;;;12.00;85.90;;;;;;4965025;28;20040;-80
2021/12/27 04:50:15;;;;;;;11.38;10.88;;;12.00;85.90;;;;;;4963451;28;20065;-79
2021/12/27 04:52:42;;;;;;;10.35;9.65;;;12.00;85.90;;;;;;4967492;28;20046;-80
2021/12/27 04:55:08;;;;;;;9.57;9.15;;;12.00;85.90;;;;;;4970490;28;20031;-80
2021/12/27 04:57:34;;;;;;;9.98;9.50;;;12.00;85.90;;;;;;4973098;28;20041;-79
2021/12/27 05:00:01;;;;;;;9.75;9.35;;;12.00;85.90;;;;;;4974472;28;20130;-79
2021/12/27 05:02:27;;;;;;;10.05;9.55;;;12.00;85.90;;;;;;4960344;28;20481;-79
2021/12/27 05:04:54;;;;;;;10.10;9.60;;;12.00;85.90;;;;;;4975813;28;20035;-80
2021/12/27 05:07:20;;;;;;;9.57;9.18;;;12.10;85.90;;;;;;4974953;28;20469;-79
2021/12/27 05:09:46;;;;;;;10.00;9.52;;;12.00;85.80;;;;;;4974174;28;20038;-79
2021/12/27 05:12:12;;;;;;;10.23;9.73;;;12.10;85.90;;;;;;4953944;28;20058;-79
2021/12/27 05:14:38;;;;;;;8.75;8.35;;;12.10;85.90;;;;;;4985613;28;20034;-78
2021/12/27 05:17:04;;;;;;;9.30;8.68;;;12.00;85.80;;;;;;4973827;28;20053;-79
2021/12/27 05:19:30;;;;;;;10.15;9.55;;;12.00;85.80;;;;;;4966585;28;20286;-79
2021/12/27 05:21:56;;;;;;;9.20;8.80;;;12.10;85.80;;;;;;4973316;28;20026;-78
2021/12/27 05:24:23;;;;;;;9.25;8.85;;;12.10;85.80;;;;;;4971444;28;20388;-79
2021/12/27 05:26:52;;;;;;;9.05;8.65;;;12.10;85.80;;;;;;4941924;29;20042;-78
2021/12/27 05:29:18;;;;;;;9.15;8.75;;;12.10;85.80;;;;;;4973581;28;20432;-78
2021/12/27 05:31:44;;;;;;;9.38;8.98;;;12.10;85.90;;;;;;4965298;28;20504;-79
2021/12/27 05:34:11;;;;;;;8.70;8.30;;;12.10;85.80;;;;;;4969811;28;20473;-79
2021/12/27 05:36:37;;;;;;;8.65;8.25;;;12.10;85.80;;;;;;4969588;28;20428;-79
2021/12/27 05:39:03;;;;;;;8.98;8.48;;;12.10;85.80;;;;;;4969465;28;20054;-79
2021/12/27 05:41:29;;;;;;;8.50;8.10;;;12.10;85.80;;;;;;4972611;28;20476;-79
2021/12/27 05:43:55;;;;;;;8.77;8.38;;;12.20;85.80;;;;;;4968882;28;20054;-78
2021/12/27 05:46:21;;;;;;;8.88;8.48;;;12.20;85.80;;;;;;4973059;28;20042;-78
2021/12/27 05:48:47;;;;;;;8.40;8.00;;;12.20;85.80;;;;;;4973275;28;20035;-78
2021/12/27 05:51:13;;;;;;;8.65;8.25;;;12.20;85.80;;;;;;4971763;28;20038;-78
2021/12/27 05:53:40;;;;;;;8.30;7.90;;;12.20;85.80;;;;;;4955707;28;20059;-79
2021/12/27 05:56:06;;;;;;;8.27;7.88;;;12.20;85.80;;;;;;4962734;28;20047;-78
2021/12/27 05:58:32;;;;;;;9.10;8.70;;;12.20;85.80;;;;;;4962345;28;20031;-78
2021/12/27 06:00:58;;;;;;;9.05;8.65;;;12.30;85.90;;;;;;4960073;28;20043;-78
2021/12/27 06:03:24;;;;;;;11.48;10.95;;;12.30;85.80;;;;;;4950331;28;20107;-78
2021/12/27 06:05:50;;;;;;;9.45;9.02;;;12.30;85.80;;;;;;4965627;28;20038;-78
2021/12/27 06:08:16;;;;;;;9.50;9.07;;;12.30;85.80;;;;;;4960422;28;20027;-78
2021/12/27 06:10:42;;;;;;;9.50;9.07;;;12.30;85.80;;;;;;4961898;28;20488;-78
2021/12/27 06:13:08;;;;;;;10.35;9.85;;;12.30;85.80;;;;;;4965884;28;20046;-78
2021/12/27 06:15:34;;;;;;;9.32;8.93;;;12.30;85.80;;;;;;4955017;28;20403;-78
2021/12/27 06:18:01;;;;;;;9.32;8.93;;;12.40;85.80;;;;;;4957418;28;20027;-79
2021/12/27 06:20:27;;;;;;;10.02;9.52;;;12.40;85.80;;;;;;4971033;28;20399;-78
2021/12/27 06:22:55;;;;;;;9.32;8.93;;;12.40;85.80;;;;;;4965556;28;20027;-78
2021/12/27 06:25:21;;;;;;;9.27;8.88;;;12.40;85.80;;;;;;4969302;28;20027;-78
2021/12/27 06:27:47;;;;;;;9.23;8.82;;;12.40;85.80;;;;;;4959838;28;20034;-78
2021/12/27 06:30:14;;;;;;;9.73;9.32;;;12.40;85.80;;;;;;4957122;28;20472;-79
2021/12/27 06:32:40;;;;;;;9.27;8.88;;;12.50;85.80;;;;;;4970797;28;20054;-78
2021/12/27 06:35:07;;;;;;;8.73;8.32;;;12.50;85.80;;;;;;4954270;28;20034;-78
2021/12/27 06:37:34;;;;;;;8.68;8.27;;;12.50;85.80;;;;;;4967515;28;20043;-79
2021/12/27 06:40:00;;;;;;;8.85;8.45;;;12.50;85.70;;;;;;4972014;28;20051;-80
2021/12/27 06:42:26;;;;;;;8.93;8.52;;;12.50;85.70;;;;;;4971650;28;20034;-79
2021/12/27 06:44:52;;;;;;;8.73;8.32;;;12.50;85.70;;;;;;4957991;28;20034;-79
2021/12/27 06:47:18;;;;;;;8.60;8.20;;;12.50;85.70;;;;;;4967603;28;20384;-78
2021/12/27 06:49:44;;;;;;;8.43;8.02;;;12.60;85.80;;;;;;4972138;28;20027;-79
2021/12/27 06:52:13;;;;;;;9.13;8.68;;;12.60;85.80;;;;;;4969016;28;20031;-79
2021/12/27 06:54:40;;;;;;;8.60;8.20;;;12.60;85.80;;;;;;4969072;28;20114;-80
2021/12/27 06:57:06;;;;;;;8.40;8.00;;;12.60;85.70;;;;;;4964842;28;20031;-80
2021/12/27 06:59:32;;;;;;;9.10;8.70;;;12.60;85.70;;;;;;4958270;28;20374;-80
2021/12/27 07:01:58;;;;;;;8.43;8.02;;;12.60;85.80;;;;;;4960109;28;20035;-79
2021/12/27 07:04:26;;;;;;;9.18;8.45;;;12.60;85.70;;;;;;4966173;28;20031;-79
2021/12/27 07:06:53;;;;;;;8.88;8.48;;;12.70;85.80;;;;;;4970767;28;20030;-79
2021/12/27 07:09:19;;;;;;;8.63;8.23;;;12.70;85.80;;;;;;4957086;28;20046;-79
2021/12/27 07:11:45;;;;;;;9.25;8.73;;;12.70;85.80;;;;;;4963128;28;20035;-79
2021/12/27 07:14:11;;;;;;;9.52;8.80;;;12.80;85.80;;;;;;4977775;28;20030;-79
2021/12/27 07:16:37;;;;;;;8.65;8.25;;;12.80;85.80;;;;;;4968468;28;20038;-79
2021/12/27 07:19:04;;;;;;;9.23;8.82;;;12.80;85.70;;;;;;4969039;28;20037;-79
2021/12/27 07:21:30;;;;;;;8.73;8.32;;;12.80;85.70;;;;;;4956871;28;20027;-78
2021/12/27 07:23:56;;;;;;;8.65;8.25;;;12.90;85.80;;;;;;4987918;28;20034;-79
2021/12/27 07:26:22;;;;;;;8.68;8.27;;;12.90;85.80;;;;;;4971984;28;20035;-79
2021/12/27 07:28:48;;;;;;;9.55;9.15;;;12.90;85.70;;;;;;4961932;28;20246;-78
2021/12/27 07:31:14;;;;;;;11.02;10.52;;;13.00;85.80;;;;;;4965938;28;20047;-78
2021/12/27 07:33:40;;;;;;;9.65;8.95;;;13.00;85.70;;;;;;4975591;28;20046;-77
2021/12/27 07:36:08;;;;;;;8.45;8.05;;;13.10;85.70;;;;;;4971187;28;20503;-77
2021/12/27 07:38:35;;;;;;;8.95;8.55;;;13.10;85.70;;;;;;4966008;28;20405;-77
2021/12/27 07:41:01;;;;;;;9.90;9.13;;;13.10;85.70;;;;;;4961449;28;20035;-77
2021/12/27 07:43:27;;;;;;;9.55;9.15;;;13.20;85.70;;;;;;4968997;28;20042;-78
2021/12/27 07:45:53;;;;;;;8.30;7.90;;;13.20;85.70;;;;;;4974213;28;20480;-78
2021/12/27 07:48:19;;;;;;;10.30;9.60;;;13.10;85.70;;;;;;4959921;28;20042;-78
2021/12/27 07:50:46;;;;;;;9.07;8.57;;;13.20;85.70;;;;;;4977643;28;20046;-78
2021/12/27 07:53:12;;;;;;;8.63;8.23;;;13.20;85.80;;;;;;4957838;28;20046;-78
2021/12/27 07:55:38;;;;;;;8.80;8.40;;;13.20;85.70;;;;;;4963877;28;20507;-78
2021/12/27 07:58:04;;;;;;;9.15;8.75;;;13.20;85.70;;;;;;4962096;28;20042;-78
2021/12/27 08:00:30;;;;;;;9.35;8.95;;;13.20;85.80;;;;;;4968061;28;20035;-79
2021/12/27 08:02:56;;;;;;;10.70;10.20;;;13.20;85.80;;;;;;4960838;28;20464;-79
2021/12/27 08:05:22;;;;;;;10.05;9.55;;;13.20;85.80;;;;;;4961201;28;20424;-76
2021/12/27 08:07:48;;;;;;;12.85;10.52;;;13.20;85.80;;;;;;4967641;28;20039;-77
2021/12/27 08:10:15;;;;;;;9.25;8.85;;;13.20;85.90;;;;;;4975328;28;20038;-78
2021/12/27 08:12:41;;;;;;;10.05;9.55;;;13.20;85.80;;;;;;4972320;28;20396;-79
2021/12/27 08:15:08;;;;;;;9.95;9.23;;;13.30;85.90;;;;;;4969935;28;20046;-78
2021/12/27 08:17:34;;;;;;;9.55;9.05;;;13.30;85.90;;;;;;4957690;28;20070;-79
2021/12/27 08:20:00;;;;;;;10.73;9.73;;;13.30;85.90;;;;;;4973059;28;20457;-79
2021/12/27 08:22:26;;;;;;;9.30;8.73;;;13.30;85.80;;;;;;4972998;28;20034;-78
2021/12/27 08:24:52;;;;;;;9.77;9.27;;;13.30;85.90;;;;;;4974531;28;20472;-78
2021/12/27 08:27:20;;;;;;;10.30;8.50;;;13.40;85.90;;;;;;4956427;28;20054;-79
2021/12/27 08:29:46;;;;;;;9.25;8.65;;;13.30;85.90;;;;;;4974705;28;20412;-79
2021/12/27 08:32:12;;;;;;;9.85;9.25;;;13.30;85.80;;;;;;4971336;28;20043;-78
2021/12/27 08:34:38;;;;;;;9.13;8.73;;;13.40;85.80;;;;;;4974369;28;20031;-78
2021/12/27 08:37:04;;;;;;;9.52;9.13;;;13.40;85.80;;;;;;4952212;28;20061;-79
2021/12/27 08:39:31;;;;;;;10.43;9.88;;;13.40;85.80;;;;;;4973355;28;20062;-78
2021/12/27 08:41:57;;;;;;;13.48;11.30;;;13.40;85.80;;;;;;4979218;28;20049;-79
2021/12/27 08:44:23;;;;;;;10.25;9.75;;;13.40;85.80;;;;;;4974005;28;20042;-79
2021/12/27 08:46:49;;;;;;;8.88;8.48;;;13.50;85.90;;;;;;4967798;28;20035;-79
2021/12/27 08:49:15;;;;;;;8.90;8.50;;;13.50;85.80;;;;;;4966431;28;20400;-79
2021/12/27 08:51:41;;;;;;;9.00;8.60;;;13.50;85.80;;;;;;4976577;28;20027;-79
2021/12/27 08:54:07;;;;;;;10.50;9.90;;;13.50;85.80;;;;;;4972781;28;20047;-79
2021/12/27 08:56:33;;;;;;;11.30;10.23;;;13.50;85.80;;;;;;4957169;28;20062;-80
2021/12/27 08:59:00;;;;;;;12.68;11.68;;;13.50;85.80;;;;;;4972789;28;20045;-80
2021/12/27 09:01:26;;;;;;;10.23;9.73;;;13.50;85.80;;;;;;4966621;28;20043;-83
2021/12/27 09:03:52;;;;;;;10.68;10.18;;;13.50;85.80;;;;;;4964361;28;20058;-83
2021/12/27 09:06:19;;;;;;;9.60;9.13;;;13.60;85.70;;;;;;4962485;28;20035;-85
2021/12/27 09:08:45;;;;;;;30.60;10.55;;;13.60;85.70;;;;;;4955762;28;20047;-82
2021/12/27 09:11:11;;;;;;;10.73;10.02;;;13.60;85.70;;;;;;4965472;28;20031;-82
2021/12/27 09:13:37;;;;;;;10.10;9.60;;;13.70;85.70;;;;;;4964028;28;20050;-82
2021/12/27 09:16:04;;;;;;;10.95;10.35;;;13.70;85.60;;;;;;4949069;28;20042;-82
2021/12/27 09:18:31;;;;;;;9.70;9.20;;;13.70;85.60;;;;;;4969169;28;20042;-81
2021/12/27 09:20:57;;;;;;;8.55;8.15;;;13.70;85.60;;;;;;4942836;28;20039;-82
2021/12/27 09:23:24;;;;;;;8.65;8.25;;;13.70;85.60;;;;;;4973029;28;20043;-84
2021/12/27 09:25:50;;;;;;;9.75;9.25;;;13.70;85.60;;;;;;4971562;28;20487;-82
2021/12/27 09:28:16;;;;;;;11.52;10.85;;;13.70;85.50;;;;;;4972582;28;20039;-83
2021/12/27 09:30:42;;;;;;;9.98;9.48;;;13.80;86.50;;;;;;4972391;28;20404;-80
2021/12/27 09:33:08;;;;;;;9.68;8.80;;;13.80;85.60;;;;;;4928217;28;20059;-84
2021/12/27 09:35:35;;;;;;;10.93;10.05;;;13.80;85.50;;;;;;4971798;28;20094;-82
2021/12/27 09:38:01;;;;;;;10.90;10.38;;;13.90;85.50;;;;;;4955768;28;20483;-79
2021/12/27 09:40:27;;;;;;;13.18;12.50;;;13.90;85.50;;;;;;4972230;28;20045;-79
2021/12/27 09:42:53;;;;;;;11.85;11.25;;;13.90;85.50;;;;;;4955828;28;20045;-79
2021/12/27 09:45:20;;;;;;;17.92;16.42;;;13.90;85.50;;;;;;4971032;28;20039;-79
2021/12/27 09:47:47;;;;;;;12.23;11.65;;;13.90;85.50;;;;;;4962822;28;20049;-83
2021/12/27 09:50:14;;;;;;;13.23;12.63;;;13.90;85.50;;;;;;4967931;28;20046;-83
2021/12/27 09:52:40;;;;;;;13.15;12.52;;;13.90;85.50;;;;;;4972501;28;20396;-81
2021/12/27 09:55:07;;;;;;;13.13;12.43;;;13.90;85.50;;;;;;4969015;28;20045;-81
2021/12/27 09:57:33;;;;;;;21.42;12.13;;;13.90;85.40;;;;;;4969188;28;20404;-81
2021/12/27 09:59:59;;;;;;;11.68;11.18;;;14.00;85.50;;;;;;4969466;28;20043;-81
2021/12/27 10:02:26;;;;;;;10.88;10.35;;;14.00;85.40;;;;;;4971560;28;20031;-82
2021/12/27 10:04:53;;;;;;;12.90;12.30;;;14.00;85.30;;;;;;4968322;28;20031;-84
2021/12/27 10:07:22;;;;;;;12.52;11.75;;;14.10;85.30;;;;;;4959274;28;20054;-81
2021/12/27 10:09:58;;;;;;;8.75;8.35;;;14.10;85.20;;;;;;4956810;28;20348;-83
2021/12/27 10:12:24;;;;;;;9.85;9.43;;;14.10;85.20;;;;;;4956258;28;20027;-80
2021/12/27 10:14:57;;;;;;;11.55;11.05;;;14.20;85.10;;;;;;4971776;28;20043;-80
2021/12/27 10:17:24;;;;;;;10.38;9.45;;;14.30;85.00;;;;;;4949610;28;20054;-82
2021/12/27 10:19:51;;;;;;;18.58;10.20;;;14.40;84.80;;;;;;4967882;28;20023;-84
2021/12/27 10:22:17;;;;;;;13.75;12.85;;;14.50;84.70;;;;;;4956353;28;20039;-83
2021/12/27 10:24:45;;;;;;;13.27;12.23;;;14.70;84.40;;;;;;4969687;28;20034;-78
2021/12/27 10:27:11;;;;;;;10.60;9.73;;;14.90;83.90;;;;;;4972550;28;20034;-78
2021/12/27 10:29:38;;;;;;;17.70;11.60;;;15.10;83.50;;;;;;4955129;28;20046;-79
2021/12/27 10:32:10;;;;;;;11.13;10.55;;;15.10;83.20;;;;;;4964922;28;20031;-83
2021/12/27 10:34:37;;;;;;;10.60;10.00;;;15.20;83.10;;;;;;4964312;28;20496;-80
2021/12/27 10:37:26;;;;;;;9.57;9.05;;;15.20;83.00;;;;;;4970752;28;20038;-79
2021/12/27 10:40:01;;;;;;;11.00;10.35;;;15.10;83.20;;;;;;4968212;28;20047;-80
2021/12/27 10:42:27;;;;;;;9.43;9.02;;;15.00;83.50;;;;;;4970544;28;20043;-78
2021/12/27 10:44:58;;;;;;;9.82;9.23;;;15.00;83.80;;;;;;4968448;28;20034;-79
2021/12/27 10:47:36;;;;;;;9.27;8.88;;;14.90;83.80;;;;;;4969250;28;20039;-80
2021/12/27 10:50:23;;;;;;;11.75;10.63;;;15.00;84.00;;;;;;4955449;28;20400;-78
2021/12/27 10:52:53;;;;;;;23.25;9.60;;;15.00;84.10;;;;;;4965319;28;20043;-79
2021/12/27 10:55:38;;;;;;;9.75;9.27;;;15.10;83.80;;;;;;4960300;28;20038;-78
2021/12/27 10:58:10;;;;;;;17.77;10.73;;;15.10;83.80;;;;;;4960406;28;20055;-80
2021/12/27 11:00:36;;;;;;;10.43;9.80;;;15.10;83.70;;;;;;4981356;28;20038;-78
2021/12/27 11:03:03;;;;;;;9.23;8.73;;;15.20;83.70;;;;;;4971610;28;20034;-78
2021/12/27 11:05:31;;;;;;;10.35;9.75;;;15.20;83.60;;;;;;4954883;28;20054;-78
2021/12/27 11:08:05;;;;;;;11.27;10.45;;;15.20;83.50;;;;;;4947405;28;20034;-78
2021/12/27 11:10:35;;;;;;;11.32;10.55;;;15.20;83.50;;;;;;4964057;28;20031;-79
2021/12/27 11:13:04;;;;;;;10.30;9.80;;;15.30;83.50;;;;;;4970279;28;20046;-81
2021/12/27 11:15:31;;;;;;;14.23;9.93;;;15.30;83.40;;;;;;4973954;28;20031;-81
2021/12/27 11:17:57;;;;;;;11.38;10.18;;;15.30;83.50;;;;;;4978728;28;20030;-81
2021/12/27 11:20:23;;;;;;;11.30;10.35;;;15.30;83.60;;;;;;4975430;28;20031;-81
2021/12/27 11:22:51;;;;;;;17.38;9.18;;;15.30;83.50;;;;;;4968348;28;20042;-81
2021/12/27 11:25:28;;;;;;;9.18;8.57;;;15.30;83.60;;;;;;4973173;28;20023;-81
2021/12/27 11:27:55;;;;;;;9.32;8.82;;;15.40;83.70;;;;;;4954122;28;20388;-81
2021/12/27 11:30:26;;;;;;;10.30;9.43;;;15.50;83.50;;;;;;4982823;28;20034;-82
2021/12/27 11:32:59;;;;;;;;;;;15.60;83.30;;;;;;4974690;28;20022;-82
2021/12/27 11:35:25;;;;;;;8.30;7.90;;;15.60;83.20;;;;;;4946373;29;19914;-80
2021/12/27 11:37:52;;;;;;;10.02;9.35;;;15.60;83.20;;;;;;4968740;28;20026;-82
2021/12/27 11:40:18;;;;;;;9.70;9.15;;;15.60;83.20;;;;;;4972620;28;20046;-81
2021/12/27 11:42:55;;;;;;;10.70;9.70;;;15.60;83.30;;;;;;4956882;28;20043;-82
2021/12/27 11:45:40;;;;;;;11.50;8.98;;;15.50;83.30;;;;;;4973983;28;20062;-80
2021/12/27 11:48:17;;;;;;;9.93;9.23;;;15.50;83.50;;;;;;4972538;28;20035;-81
2021/12/27 11:50:58;;;;;;;10.52;10.02;;;15.40;83.50;;;;;;4974490;28;20023;-81
2021/12/27 11:53:26;;;;;;;10.75;9.23;;;15.30;83.70;;;;;;4966517;28;20043;-81
2021/12/27 11:55:52;;;;;;;9.07;8.68;;;15.30;84.00;;;;;;4975301;28;20038;-82
2021/12/27 11:58:34;;;;;;;10.00;9.50;;;15.20;84.00;;;;;;4982632;28;20030;-82
2021/12/27 12:01:02;;;;;;;10.07;9.60;;;15.20;84.10;;;;;;4972569;28;20039;-82
2021/12/27 12:03:39;;;;;;;13.27;12.00;;;15.10;84.20;;;;;;4956691;28;20031;-81
2021/12/27 12:06:05;;;;;;;10.52;9.73;;;15.10;84.40;;;;;;4954936;28;20049;-84
2021/12/27 12:08:37;;;;;;;11.38;10.82;;;15.00;84.30;;;;;;4977089;28;20038;-82
2021/12/27 12:11:10;;;;;;;11.52;10.65;;;14.90;84.40;;;;;;4964560;28;20047;-82
2021/12/27 12:13:36;;;;;;;11.45;10.95;;;14.80;84.50;;;;;;4953937;28;20046;-83
2021/12/27 12:16:09;;;;;;;11.35;10.85;;;14.80;84.70;;;;;;4973656;28;20038;-82
2021/12/27 12:18:59;;;;;;;11.10;10.32;;;14.80;84.70;;;;;;4972456;28;20030;-82
2021/12/27 12:21:31;;;;;;;10.25;9.73;;;14.70;84.70;;;;;;4959112;28;20503;-83
2021/12/27 12:23:59;;;;;;;9.65;9.25;;;14.80;84.70;;;;;;4974557;28;20422;-82
2021/12/27 12:26:25;;;;;;;8.93;8.52;;;14.80;84.60;;;;;;4972976;28;20041;-82
2021/12/27 12:28:59;;;;;;;9.05;8.65;;;14.80;84.50;;;;;;4966871;28;20042;-82
2021/12/27 12:31:30;;;;;;;10.13;8.75;;;14.90;84.40;;;;;;4965548;28;20047;-84
2021/12/27 12:34:09;;;;;;;10.48;9.77;;;15.00;84.40;;;;;;4965020;28;20054;-85
2021/12/27 12:36:46;;;;;;;12.65;11.98;;;15.10;84.00;;;;;;4970951;28;20027;-84
2021/12/27 12:39:12;;;;;;;8.38;7.97;;;15.30;83.80;;;;;;4969715;28;20077;-84
2021/12/27 12:41:38;;;;;;;10.13;9.63;;;15.40;83.40;;;;;;4962360;28;20042;-84
2021/12/27 12:44:04;;;;;;;10.63;10.13;;;15.40;83.30;;;;;;4968928;28;20046;-84
2021/12/27 12:46:41;;;;;;;11.15;10.65;;;15.40;83.90;;;;;;4968292;28;20031;-83